Langston, Alabama
Current Conditions -  °F | °C
As of 12:55 PM on Tuesday 27 Jan 2015 (Local Time) from K4A6 Reporting Station
Broken Clouds Broken Clouds  
Wind Chill:   Ceiling: 4000
Heat Index:   Visibility: 10mi
Dew Point: -1°   Wind: 8mph
Humidity: 50%   Direction: 350°N
Pressure: 30.03"   Gusts: NA
Location:  34.54°N, 86.07°W
Report Text: K4A6 271855Z AUTO 35007KT 10SM BKN040 BKN048 09/M01 A3003 RMK AO2
Loading
Personal Weather Stations






























Interactive Weather Map New forecast layout! Learn more

10-Day Weather Forecast

Advertisements
Track Severe Weather on mobile